Time;durP1;ratioP1;P1;durP2;ratioP2;P2;SDS_P1;SDS_P2;PMS_P1;PMS_P2;Temp;Humidity;BMP_temperature;BMP_pressure;BME280_temperature;BME280_humidity;BME280_pressure;Samples;Min_cycle;Max_cycle;Signal;HPM_P1;HPM_P2
2023/06/25 00:01:43;;;;;;;16.55;8.07;;;22.70;99.90;;;;;;4965233;28;20066;-77
2023/06/25 00:04:11;;;;;;;13.32;6.63;;;22.70;99.90;;;;;;4957102;28;20392;-77
2023/06/25 00:06:39;;;;;;;15.50;7.32;;;22.80;99.90;;;;;;4963822;28;20094;-77
2023/06/25 00:10:00;;;;;;;18.05;9.38;;;22.90;99.90;;;;;;5105713;23;20094;-76
2023/06/25 00:12:29;;;;;;;59.72;36.13;;;22.80;99.90;;;;;;4961047;23;20056;-77
2023/06/25 00:15:02;;;;;;;12.95;9.25;;;22.90;99.90;;;;;;4899560;29;20043;-80
2023/06/25 00:20:52;;;;;;;15.90;6.97;;;21.70;99.90;;;;;;4877582;23;20120;-76
2023/06/25 00:29:54;;;;;;;15.55;7.40;;;22.50;99.90;;;;;;4897795;29;20067;-76
2023/06/25 00:32:24;;;;;;;12.10;6.47;;;22.40;99.90;;;;;;4899998;29;20032;-76
2023/06/25 00:34:57;;;;;;;14.35;7.72;;;22.30;99.90;;;;;;4901293;29;20048;-75
2023/06/25 00:37:27;;;;;;;15.05;6.93;;;22.10;99.90;;;;;;4900833;29;20470;-75
2023/06/25 00:39:55;;;;;;;19.27;7.50;;;22.10;99.90;;;;;;4905507;29;20036;-75
2023/06/25 00:43:04;;;;;;;14.60;7.55;;;22.00;99.90;;;;;;4886403;29;20073;-75
2023/06/25 00:45:39;;;;;;;15.00;7.05;;;21.80;99.90;;;;;;4901794;29;20105;-74
2023/06/25 00:48:07;;;;;;;14.52;7.18;;;21.90;99.90;;;;;;4880553;29;20132;-76
2023/06/25 00:50:37;;;;;;;16.13;7.82;;;22.00;99.90;;;;;;4899287;29;20040;-75
2023/06/25 00:54:58;;;;;;;15.15;8.65;;;22.00;99.90;;;;;;4901338;29;20184;-74
2023/06/25 01:00:33;;;;;;;27.05;13.68;;;21.80;99.90;;;;;;5123287;23;20048;-74
2023/06/25 01:03:31;;;;;;;24.55;10.48;;;21.80;99.90;;;;;;4867889;29;20052;-74
2023/06/25 01:06:20;;;;;;;21.17;8.98;;;21.80;99.90;;;;;;4903916;29;20044;-74
2023/06/25 01:09:06;;;;;;;14.45;8.20;;;21.70;99.90;;;;;;4896397;29;20036;-74
2023/06/25 01:11:58;;;;;;;17.27;8.90;;;21.70;99.90;;;;;;4866289;29;20088;-74
2023/06/25 01:14:29;;;;;;;17.55;8.15;;;21.70;99.90;;;;;;4898398;29;20071;-76
2023/06/25 01:16:56;;;;;;;18.92;8.80;;;21.60;99.90;;;;;;4888397;29;20052;-73
2023/06/25 01:19:29;;;;;;;15.00;7.72;;;21.60;99.90;;;;;;4906525;29;20047;-72
2023/06/25 01:22:02;;;;;;;16.42;8.05;;;21.60;99.90;;;;;;4893320;29;20052;-72
2023/06/25 01:24:32;;;;;;;17.73;8.45;;;21.60;99.90;;;;;;4905254;29;20048;-71
2023/06/25 01:27:00;;;;;;;18.95;8.68;;;21.50;99.90;;;;;;4910693;29;20040;-74
2023/06/25 01:29:28;;;;;;;17.90;8.27;;;21.50;99.90;;;;;;4906536;29;20052;-74
2023/06/25 01:31:57;;;;;;;17.25;7.85;;;21.60;99.90;;;;;;4910726;29;20497;-73
2023/06/25 01:34:25;;;;;;;13.07;6.90;;;21.80;99.90;;;;;;4910781;29;20052;-74
2023/06/25 01:36:53;;;;;;;14.82;7.70;;;21.80;99.90;;;;;;4900522;29;20068;-74
2023/06/25 01:39:21;;;;;;;15.15;7.68;;;21.80;99.90;;;;;;4903219;29;20044;-74
2023/06/25 01:41:49;;;;;;;12.57;6.70;;;21.60;99.90;;;;;;4901706;29;20044;-73
2023/06/25 01:44:24;;;;;;;15.55;7.10;;;21.30;99.90;;;;;;4897164;29;20088;-74
2023/06/25 01:46:51;;;;;;;15.30;9.00;;;21.30;99.90;;;;;;4903172;29;20631;-73
2023/06/25 01:49:19;;;;;;;15.65;7.60;;;21.20;99.90;;;;;;4902883;29;20123;-73
2023/06/25 01:52:03;;;;;;;16.13;7.47;;;21.20;99.90;;;;;;4900583;29;20074;-75
2023/06/25 01:54:31;;;;;;;17.02;7.10;;;21.20;99.90;;;;;;4891797;29;20044;-73
2023/06/25 01:56:59;;;;;;;14.75;7.07;;;21.20;99.90;;;;;;4904802;29;20395;-76
2023/06/25 01:59:34;;;;;;;12.88;7.63;;;21.20;99.90;;;;;;4953485;23;20056;-74
2023/06/25 02:02:04;;;;;;;14.27;6.70;;;21.10;99.90;;;;;;4914347;29;20497;-74
2023/06/25 02:04:34;;;;;;;;;;;21.10;99.90;;;;;;4921919;23;20040;-74
2023/06/25 02:07:03;;;;;;;13.80;6.60;;;21.10;99.90;;;;;;4915622;29;20273;-73
2023/06/25 02:09:45;;;;;;;14.48;7.50;;;21.10;99.90;;;;;;4893595;29;20481;-74
2023/06/25 02:12:13;;;;;;;10.52;6.53;;;21.30;99.90;;;;;;4927197;29;20044;-75
2023/06/25 02:14:44;;;;;;;14.57;6.75;;;21.40;99.90;;;;;;4915378;29;20048;-76
2023/06/25 02:17:11;;;;;;;14.45;6.07;;;21.40;99.90;;;;;;4913509;29;20051;-74
2023/06/25 02:19:39;;;;;;;11.35;6.63;;;21.10;99.90;;;;;;4933604;29;20051;-72
2023/06/25 02:22:06;;;;;;;14.88;7.28;;;21.20;99.90;;;;;;4934361;29;20398;-74
2023/06/25 02:24:33;;;;;;;10.90;6.97;;;21.10;99.90;;;;;;4935351;29;20044;-75
2023/06/25 02:27:01;;;;;;;14.65;6.35;;;21.30;99.90;;;;;;4934006;29;20099;-75
2023/06/25 02:29:28;;;;;;;18.63;7.03;;;21.40;99.90;;;;;;4940652;29;20059;-74
2023/06/25 02:31:55;;;;;;;13.98;6.53;;;21.40;99.90;;;;;;4914696;29;20127;-74
2023/06/25 02:34:23;;;;;;;16.85;6.40;;;21.20;99.90;;;;;;4934912;29;20075;-74
2023/06/25 02:36:50;;;;;;;11.88;6.38;;;21.20;99.90;;;;;;4917588;29;20046;-73
2023/06/25 02:39:18;;;;;;;13.73;7.13;;;21.20;99.90;;;;;;4939579;23;20362;-75
2023/06/25 02:41:48;;;;;;;12.63;6.80;;;21.00;99.90;;;;;;4916546;29;20051;-76
2023/06/25 02:44:16;;;;;;;12.75;7.25;;;21.20;99.90;;;;;;4903119;29;20049;-75
2023/06/25 02:46:45;;;;;;;15.50;7.60;;;21.10;99.90;;;;;;4900601;29;20398;-74
2023/06/25 02:49:12;;;;;;;13.02;6.63;;;20.60;99.90;;;;;;4915635;29;20099;-72
2023/06/25 02:51:39;;;;;;;14.65;7.35;;;20.50;99.90;;;;;;4914572;29;20539;-74
2023/06/25 02:54:07;;;;;;;13.70;6.72;;;20.80;99.90;;;;;;4915575;29;20145;-75
2023/06/25 02:56:34;;;;;;;14.30;8.00;;;20.90;99.90;;;;;;4916268;29;20059;-74
2023/06/25 02:59:01;;;;;;;11.82;7.28;;;20.90;99.90;;;;;;4916437;29;20044;-74
2023/06/25 03:01:28;;;;;;;14.05;7.35;;;20.90;99.90;;;;;;4917883;29;20545;-73
2023/06/25 03:03:57;;;;;;;14.75;7.60;;;21.00;99.90;;;;;;4898423;29;20043;-74
2023/06/25 03:06:24;;;;;;;12.98;7.38;;;21.00;99.90;;;;;;4903039;29;20134;-75
2023/06/25 03:08:52;;;;;;;11.68;7.13;;;21.00;99.90;;;;;;4900079;29;20060;-73
2023/06/25 03:11:19;;;;;;;15.27;6.97;;;20.90;99.90;;;;;;4917644;29;20051;-74
2023/06/25 03:13:49;;;;;;;17.60;8.13;;;20.90;99.90;;;;;;4905003;29;20051;-73
2023/06/25 03:16:16;;;;;;;19.52;8.30;;;21.10;99.90;;;;;;4921798;29;20130;-73
2023/06/25 03:18:43;;;;;;;21.88;7.20;;;20.60;99.90;;;;;;4923592;29;20044;-74
2023/06/25 03:21:10;;;;;;;15.23;7.97;;;20.10;99.90;;;;;;4921735;29;20082;-73
2023/06/25 03:23:38;;;;;;;16.35;7.93;;;20.20;99.90;;;;;;4923910;29;20489;-72
2023/06/25 03:26:05;;;;;;;19.48;8.80;;;20.10;99.90;;;;;;4914379;29;20559;-73
2023/06/25 03:28:33;;;;;;;18.75;9.55;;;20.20;99.90;;;;;;4921513;29;20139;-75
2023/06/25 03:31:01;;;;;;;17.20;8.80;;;20.30;99.90;;;;;;4886914;29;20044;-73
2023/06/25 03:33:28;;;;;;;19.90;9.70;;;20.70;99.90;;;;;;4922381;29;20048;-74
2023/06/25 03:35:55;;;;;;;19.52;9.75;;;21.10;99.90;;;;;;4929035;29;20044;-73
2023/06/25 03:38:22;;;;;;;20.27;9.52;;;21.20;99.90;;;;;;4934136;29;20051;-74
2023/06/25 03:40:50;;;;;;;20.10;9.98;;;20.80;99.90;;;;;;4923682;29;20570;-73
2023/06/25 03:43:17;;;;;;;19.33;9.77;;;21.00;99.90;;;;;;4931548;29;20036;-74
2023/06/25 03:45:44;;;;;;;21.20;9.82;;;21.20;99.90;;;;;;4923137;29;20131;-73
2023/06/25 03:48:11;;;;;;;20.15;10.20;;;20.90;99.90;;;;;;4934559;29;20043;-73
2023/06/25 03:50:39;;;;;;;19.95;9.73;;;20.60;99.90;;;;;;4937066;29;20048;-73
2023/06/25 03:53:06;;;;;;;20.02;10.63;;;20.70;99.90;;;;;;4936535;29;20044;-72
2023/06/25 03:55:33;;;;;;;18.60;10.40;;;20.80;99.90;;;;;;4925619;29;20490;-73
2023/06/25 03:58:01;;;;;;;23.75;10.82;;;20.80;99.90;;;;;;4913471;29;20398;-73
2023/06/25 04:00:31;;;;;;;24.35;11.25;;;21.10;99.90;;;;;;4922916;29;20126;-74
2023/06/25 04:02:58;;;;;;;20.52;11.18;;;21.40;99.90;;;;;;4911563;29;20059;-72
2023/06/25 04:05:25;;;;;;;22.80;10.68;;;21.60;99.90;;;;;;4923793;29;20054;-73
2023/06/25 04:07:53;;;;;;;23.27;11.52;;;21.60;99.90;;;;;;4929405;29;20048;-73
2023/06/25 04:10:20;;;;;;;20.13;10.35;;;21.70;99.90;;;;;;4929470;29;20044;-73
2023/06/25 04:12:47;;;;;;;19.35;10.60;;;21.80;99.90;;;;;;4935804;29;20142;-72
2023/06/25 04:15:15;;;;;;;22.45;9.82;;;21.90;99.90;;;;;;4928764;29;20097;-73
2023/06/25 04:17:42;;;;;;;24.27;11.07;;;22.00;99.90;;;;;;4936392;29;20413;-73
2023/06/25 04:20:10;;;;;;;17.77;9.60;;;22.10;99.90;;;;;;4934385;29;20044;-71
2023/06/25 04:22:37;;;;;;;20.67;9.82;;;21.80;99.90;;;;;;4935765;29;20044;-76
2023/06/25 04:25:05;;;;;;;18.00;10.27;;;22.00;99.90;;;;;;4929379;29;20412;-73
2023/06/25 04:27:32;;;;;;;20.83;9.90;;;22.10;99.90;;;;;;4935685;29;20047;-72
2023/06/25 04:30:00;;;;;;;20.33;9.50;;;22.30;99.90;;;;;;4916441;29;20044;-73
2023/06/25 04:32:28;;;;;;;17.95;9.60;;;22.30;99.90;;;;;;4918605;29;20139;-74
2023/06/25 04:34:56;;;;;;;16.58;9.65;;;22.30;99.90;;;;;;4919162;29;20454;-75
2023/06/25 04:37:23;;;;;;;18.92;10.40;;;22.30;99.90;;;;;;4915344;29;20056;-73
2023/06/25 04:39:51;;;;;;;18.15;10.07;;;22.40;99.90;;;;;;4902179;29;20063;-74
2023/06/25 04:42:18;;;;;;;16.73;9.55;;;22.20;99.90;;;;;;4917458;29;20044;-74
2023/06/25 04:44:45;;;;;;;16.63;9.30;;;22.40;99.90;;;;;;4917900;29;20050;-73
2023/06/25 04:47:12;;;;;;;18.23;11.07;;;22.40;99.90;;;;;;4917698;29;20138;-74
2023/06/25 04:49:40;;;;;;;19.30;10.23;;;22.50;99.90;;;;;;4926359;29;20050;-73
2023/06/25 04:52:07;;;;;;;17.15;9.70;;;22.50;99.90;;;;;;4916688;29;20047;-72
2023/06/25 04:54:34;;;;;;;15.68;9.23;;;22.50;99.90;;;;;;4935367;29;20044;-73
2023/06/25 04:57:02;;;;;;;20.98;10.35;;;22.40;99.90;;;;;;4933986;29;20090;-72
2023/06/25 04:59:29;;;;;;;20.13;10.40;;;22.50;99.90;;;;;;4906147;29;20068;-73
2023/06/25 05:01:56;;;;;;;27.00;12.90;;;22.50;99.90;;;;;;4906678;29;20135;-74
2023/06/25 05:04:23;;;;;;;25.85;14.02;;;22.50;99.90;;;;;;4919771;29;20100;-73
2023/06/25 05:06:51;;;;;;;27.42;12.93;;;22.50;99.90;;;;;;4919394;29;20138;-73
2023/06/25 05:09:18;;;;;;;25.70;14.00;;;22.60;99.90;;;;;;4919433;29;20048;-73
2023/06/25 05:11:45;;;;;;;23.33;13.48;;;22.50;99.90;;;;;;4921862;29;20071;-74
2023/06/25 05:14:13;;;;;;;23.48;13.05;;;22.50;99.90;;;;;;4905108;29;20100;-74
2023/06/25 05:16:40;;;;;;;24.17;13.25;;;22.50;99.90;;;;;;4926079;29;20075;-72
2023/06/25 05:19:07;;;;;;;26.23;13.65;;;22.50;99.90;;;;;;4916958;29;20048;-72
2023/06/25 05:21:34;;;;;;;25.83;12.05;;;22.50;99.90;;;;;;4925883;29;20074;-73
2023/06/25 05:24:05;;;;;;;26.83;12.18;;;22.60;99.90;;;;;;4916383;29;20052;-73
2023/06/25 05:26:33;;;;;;;24.45;12.75;;;22.70;99.90;;;;;;4922130;29;20040;-73
2023/06/25 05:29:01;;;;;;;32.55;13.15;;;22.60;99.90;;;;;;4916728;29;20040;-74
2023/06/25 05:31:29;;;;;;;23.85;13.20;;;22.60;99.90;;;;;;4912569;29;20036;-72
2023/06/25 05:33:56;;;;;;;20.75;12.98;;;22.60;99.90;;;;;;4922304;29;20115;-74
2023/06/25 05:36:24;;;;;;;22.13;12.88;;;22.60;99.90;;;;;;4922875;29;20095;-73
2023/06/25 05:38:51;;;;;;;25.30;12.77;;;22.60;99.90;;;;;;4910595;29;20075;-73
2023/06/25 05:41:18;;;;;;;28.52;14.68;;;22.60;99.90;;;;;;4928894;29;20143;-72
2023/06/25 05:43:45;;;;;;;24.30;12.98;;;22.70;99.90;;;;;;4905348;29;20047;-73
2023/06/25 05:46:13;;;;;;;24.55;12.60;;;22.80;99.90;;;;;;4920791;29;20068;-74
2023/06/25 05:48:41;;;;;;;22.48;13.38;;;22.90;99.90;;;;;;4915531;29;20079;-75
2023/06/25 05:51:08;;;;;;;26.35;13.07;;;23.00;99.90;;;;;;4916848;29;20050;-75
2023/06/25 05:53:43;;;;;;;24.20;12.32;;;23.00;99.90;;;;;;4920171;29;20453;-76
2023/06/25 05:56:11;;;;;;;22.60;10.90;;;23.10;99.90;;;;;;4906588;29;20047;-74
2023/06/25 05:58:43;;;;;;;27.75;13.05;;;23.20;99.90;;;;;;4919341;29;20043;-74
2023/06/25 06:01:10;;;;;;;18.50;11.30;;;23.30;99.90;;;;;;4902715;29;20054;-73
2023/06/25 06:03:38;;;;;;;21.95;12.38;;;23.30;99.90;;;;;;4920213;29;20048;-73
2023/06/25 06:06:05;;;;;;;21.90;12.32;;;23.30;99.90;;;;;;4924321;29;20412;-72
2023/06/25 06:08:33;;;;;;;22.15;11.70;;;23.40;99.90;;;;;;4921686;29;20059;-74
2023/06/25 06:11:00;;;;;;;21.40;12.13;;;23.60;99.90;;;;;;4922490;29;20071;-75
2023/06/25 06:13:27;;;;;;;21.75;11.18;;;23.70;99.90;;;;;;4915438;29;20122;-74
2023/06/25 06:15:55;;;;;;;19.20;11.48;;;23.70;99.90;;;;;;4922907;29;20040;-74
2023/06/25 06:18:22;;;;;;;18.45;10.82;;;23.70;99.90;;;;;;4921151;29;20040;-76
2023/06/25 06:20:49;;;;;;;20.42;11.23;;;23.70;99.90;;;;;;4925123;29;20047;-74
2023/06/25 06:23:17;;;;;;;18.77;10.95;;;23.80;99.90;;;;;;4916312;29;20143;-74
2023/06/25 06:25:44;;;;;;;19.67;11.50;;;23.90;99.90;;;;;;4925139;29;20063;-74
2023/06/25 06:28:13;;;;;;;18.80;10.60;;;23.90;99.90;;;;;;4920271;29;20447;-74
2023/06/25 06:30:41;;;;;;;17.75;10.45;;;24.00;99.90;;;;;;4909330;29;20437;-75
2023/06/25 06:33:08;;;;;;;16.48;9.68;;;24.00;99.90;;;;;;4920518;29;20060;-74
2023/06/25 06:35:38;;;;;;;20.30;9.63;;;24.10;99.90;;;;;;4934767;29;20489;-74
2023/06/25 06:38:05;;;;;;;17.58;9.98;;;24.20;99.90;;;;;;4931348;29;20048;-73
2023/06/25 06:40:35;;;;;;;18.77;10.18;;;24.20;99.90;;;;;;4924704;29;20052;-76
2023/06/25 06:43:05;;;;;;;19.70;10.32;;;24.30;99.90;;;;;;4933536;29;20123;-75
2023/06/25 06:45:32;;;;;;;15.23;10.77;;;24.40;99.90;;;;;;4915577;29;20052;-76
2023/06/25 06:47:59;;;;;;;16.17;10.80;;;24.40;99.90;;;;;;4927281;29;20048;-76
2023/06/25 06:50:35;;;;;;;16.65;10.63;;;24.50;99.90;;;;;;4922501;29;20059;-72
2023/06/25 06:53:44;;;;;;;21.90;11.80;;;24.40;99.90;;;;;;4909241;29;20052;-75
2023/06/25 06:56:39;;;;;;;19.30;10.33;;;24.50;99.90;;;;;;4917863;29;20052;-76
2023/06/25 07:03:21;;;;;;;62.08;39.22;;;24.40;99.90;;;;;;4882849;29;20071;-75
2023/06/25 07:06:05;;;;;;;34.83;18.58;;;24.50;99.90;;;;;;4921319;29;20052;-75
2023/06/25 07:15:12;;;;;;;15.77;10.55;;;24.50;99.90;;;;;;5390879;23;20043;-81
2023/06/25 07:17:40;;;;;;;21.35;13.35;;;24.70;99.90;;;;;;5140688;23;20059;-77
2023/06/25 07:20:08;;;;;;;16.05;9.45;;;25.00;99.90;;;;;;4922672;29;20039;-79
2023/06/25 07:22:37;;;;;;;17.13;11.38;;;25.10;99.90;;;;;;4932597;29;20362;-75
2023/06/25 07:25:07;;;;;;;62.05;40.03;;;24.90;99.90;;;;;;4935588;29;20040;-81
2023/06/25 07:28:09;;;;;;;18.52;13.10;;;25.00;99.90;;;;;;5339882;23;20556;-81
2023/06/25 07:30:38;;;;;;;15.55;9.85;;;25.30;99.90;;;;;;4935962;29;20142;-78
2023/06/25 07:33:06;;;;;;;11.40;7.80;;;25.40;99.90;;;;;;4940465;29;20451;-77
2023/06/25 07:35:33;;;;;;;16.17;8.07;;;25.50;99.90;;;;;;4935696;29;20051;-79
2023/06/25 07:38:01;;;;;;;14.50;8.00;;;25.60;99.90;;;;;;4940582;29;20086;-77
2023/06/25 07:41:16;;;;;;;;;;;;;;;;;;;;;
2023/06/25 07:45:20;;;;;;;;;;;;;;;;;;;;;
2023/06/25 07:48:23;;;;;;;14.60;8.02;;;25.70;99.90;;;;;;4934271;29;20548;-75
2023/06/25 07:51:02;;;;;;;11.88;6.95;;;25.40;99.90;;;;;;5352587;23;20059;-76
2023/06/25 07:54:19;;;;;;;12.73;7.05;;;25.60;99.90;;;;;;5026641;23;20038;-76
2023/06/25 07:56:47;;;;;;;11.70;7.70;;;25.70;99.90;;;;;;4896493;29;20390;-75
2023/06/25 07:59:58;;;;;;;12.45;8.00;;;25.60;99.90;;;;;;4900211;29;20049;-76
2023/06/25 08:02:27;;;;;;;11.68;7.43;;;25.40;99.90;;;;;;4900272;29;20048;-77
2023/06/25 08:05:22;;;;;;;13.20;7.13;;;25.60;99.90;;;;;;4893702;29;20060;-80
2023/06/25 08:07:51;;;;;;;13.75;8.25;;;25.80;99.90;;;;;;4897983;29;20059;-76
2023/06/25 08:10:19;;;;;;;12.63;7.25;;;26.00;99.90;;;;;;4902511;29;20533;-76
2023/06/25 08:12:47;;;;;;;14.95;7.32;;;26.00;99.90;;;;;;4902116;29;20123;-77
2023/06/25 08:15:15;;;;;;;15.48;11.80;;;26.00;99.90;;;;;;4903290;29;20060;-75
2023/06/25 08:17:43;;;;;;;84.20;57.42;;;26.20;99.90;;;;;;4900763;29;20045;-75
2023/06/25 08:20:10;;;;;;;61.72;44.00;;;26.40;99.90;;;;;;4905563;29;20111;-76
2023/06/25 08:22:38;;;;;;;18.88;13.40;;;26.50;99.90;;;;;;4884552;29;20079;-76
